sensor_id;sensor_type;location;lat;lon;timestamp;P1;durP1;ratioP1;P2;durP2;ratioP2
37677;SDS011;23517;50.390;8.616;2024-01-15T00:00:12;16.98;;;7.60;;
37677;SDS011;23517;50.390;8.616;2024-01-15T00:02:40;14.65;;;7.35;;
37677;SDS011;23517;50.390;8.616;2024-01-15T00:05:06;14.18;;;7.20;;
37677;SDS011;23517;50.390;8.616;2024-01-15T00:07:33;15.93;;;6.97;;
37677;SDS011;23517;50.390;8.616;2024-01-15T00:10:00;13.77;;;6.65;;
37677;SDS011;23517;50.390;8.616;2024-01-15T00:12:28;16.05;;;6.43;;
37677;SDS011;23517;50.390;8.616;2024-01-15T00:14:55;12.63;;;6.72;;
37677;SDS011;23517;50.390;8.616;2024-01-15T00:17:21;14.52;;;7.28;;
37677;SDS011;23517;50.390;8.616;2024-01-15T00:19:48;12.18;;;6.28;;
37677;SDS011;23517;50.390;8.616;2024-01-15T00:22:15;13.15;;;5.75;;
37677;SDS011;23517;50.390;8.616;2024-01-15T00:24:42;15.10;;;6.72;;
37677;SDS011;23517;50.390;8.616;2024-01-15T00:27:09;13.18;;;6.25;;
37677;SDS011;23517;50.390;8.616;2024-01-15T00:29:36;13.68;;;6.50;;
37677;SDS011;23517;50.390;8.616;2024-01-15T00:32:02;11.88;;;6.28;;
37677;SDS011;23517;50.390;8.616;2024-01-15T00:34:30;12.27;;;6.20;;
37677;SDS011;23517;50.390;8.616;2024-01-15T00:36:57;11.95;;;6.45;;
37677;SDS011;23517;50.390;8.616;2024-01-15T00:39:26;11.13;;;6.28;;
37677;SDS011;23517;50.390;8.616;2024-01-15T00:41:53;19.17;;;6.72;;
37677;SDS011;23517;50.390;8.616;2024-01-15T00:44:20;12.43;;;6.43;;
37677;SDS011;23517;50.390;8.616;2024-01-15T00:46:46;12.82;;;6.25;;
37677;SDS011;23517;50.390;8.616;2024-01-15T00:49:13;12.02;;;6.05;;
37677;SDS011;23517;50.390;8.616;2024-01-15T00:51:40;12.80;;;6.32;;
37677;SDS011;23517;50.390;8.616;2024-01-15T00:54:07;12.80;;;6.45;;
37677;SDS011;23517;50.390;8.616;2024-01-15T00:56:34;10.95;;;5.82;;
37677;SDS011;23517;50.390;8.616;2024-01-15T00:59:01;15.52;;;7.20;;
37677;SDS011;23517;50.390;8.616;2024-01-15T01:01:28;12.38;;;6.60;;
37677;SDS011;23517;50.390;8.616;2024-01-15T01:03:55;14.38;;;6.10;;
37677;SDS011;23517;50.390;8.616;2024-01-15T01:06:22;11.50;;;6.28;;
37677;SDS011;23517;50.390;8.616;2024-01-15T01:08:49;16.67;;;7.50;;
37677;SDS011;23517;50.390;8.616;2024-01-15T01:11:16;14.15;;;6.65;;
37677;SDS011;23517;50.390;8.616;2024-01-15T01:13:42;14.70;;;6.80;;
37677;SDS011;23517;50.390;8.616;2024-01-15T01:16:09;13.18;;;7.20;;
37677;SDS011;23517;50.390;8.616;2024-01-15T01:18:36;13.13;;;6.93;;
37677;SDS011;23517;50.390;8.616;2024-01-15T01:21:03;14.65;;;6.97;;
37677;SDS011;23517;50.390;8.616;2024-01-15T01:23:30;13.70;;;6.95;;
37677;SDS011;23517;50.390;8.616;2024-01-15T01:28:30;18.42;;;7.68;;
37677;SDS011;23517;50.390;8.616;2024-01-15T01:30:57;14.50;;;7.30;;
37677;SDS011;23517;50.390;8.616;2024-01-15T01:33:23;21.60;;;7.97;;
37677;SDS011;23517;50.390;8.616;2024-01-15T01:35:50;14.50;;;7.25;;
37677;SDS011;23517;50.390;8.616;2024-01-15T01:38:17;12.68;;;6.70;;
37677;SDS011;23517;50.390;8.616;2024-01-15T01:40:44;14.70;;;7.50;;
37677;SDS011;23517;50.390;8.616;2024-01-15T01:43:11;17.67;;;7.35;;
37677;SDS011;23517;50.390;8.616;2024-01-15T01:45:37;15.50;;;7.47;;
37677;SDS011;23517;50.390;8.616;2024-01-15T01:48:05;14.80;;;7.40;;
37677;SDS011;23517;50.390;8.616;2024-01-15T01:50:32;19.25;;;8.73;;
37677;SDS011;23517;50.390;8.616;2024-01-15T01:53:00;18.45;;;7.70;;
37677;SDS011;23517;50.390;8.616;2024-01-15T01:55:27;15.15;;;7.40;;
37677;SDS011;23517;50.390;8.616;2024-01-15T01:57:55;20.25;;;7.45;;
37677;SDS011;23517;50.390;8.616;2024-01-15T02:00:22;13.88;;;6.93;;
37677;SDS011;23517;50.390;8.616;2024-01-15T02:02:50;17.48;;;7.72;;
37677;SDS011;23517;50.390;8.616;2024-01-15T02:05:18;17.40;;;7.47;;
37677;SDS011;23517;50.390;8.616;2024-01-15T02:07:46;14.95;;;7.10;;
37677;SDS011;23517;50.390;8.616;2024-01-15T02:10:13;16.85;;;7.30;;
37677;SDS011;23517;50.390;8.616;2024-01-15T02:12:42;16.02;;;7.18;;
37677;SDS011;23517;50.390;8.616;2024-01-15T02:15:09;17.50;;;8.00;;
37677;SDS011;23517;50.390;8.616;2024-01-15T02:17:55;17.63;;;8.40;;
37677;SDS011;23517;50.390;8.616;2024-01-15T02:20:27;15.38;;;8.13;;
37677;SDS011;23517;50.390;8.616;2024-01-15T02:23:01;17.75;;;8.30;;
37677;SDS011;23517;50.390;8.616;2024-01-15T02:25:42;18.15;;;8.48;;
37677;SDS011;23517;50.390;8.616;2024-01-15T02:28:12;17.08;;;8.02;;
37677;SDS011;23517;50.390;8.616;2024-01-15T02:30:42;17.15;;;8.07;;
37677;SDS011;23517;50.390;8.616;2024-01-15T02:33:10;16.60;;;8.13;;
37677;SDS011;23517;50.390;8.616;2024-01-15T02:35:38;17.17;;;8.20;;
37677;SDS011;23517;50.390;8.616;2024-01-15T02:38:05;16.05;;;7.82;;
37677;SDS011;23517;50.390;8.616;2024-01-15T02:40:33;17.38;;;8.40;;
37677;SDS011;23517;50.390;8.616;2024-01-15T02:43:06;16.00;;;7.88;;
37677;SDS011;23517;50.390;8.616;2024-01-15T02:45:32;16.65;;;7.90;;
37677;SDS011;23517;50.390;8.616;2024-01-15T02:47:59;20.33;;;8.60;;
37677;SDS011;23517;50.390;8.616;2024-01-15T02:50:26;17.88;;;7.93;;
37677;SDS011;23517;50.390;8.616;2024-01-15T02:52:53;16.30;;;7.88;;
37677;SDS011;23517;50.390;8.616;2024-01-15T02:55:20;15.35;;;7.72;;
37677;SDS011;23517;50.390;8.616;2024-01-15T02:57:47;15.55;;;7.47;;
37677;SDS011;23517;50.390;8.616;2024-01-15T03:00:14;18.88;;;8.50;;
37677;SDS011;23517;50.390;8.616;2024-01-15T03:02:41;19.50;;;8.65;;
37677;SDS011;23517;50.390;8.616;2024-01-15T03:05:13;17.45;;;7.75;;
37677;SDS011;23517;50.390;8.616;2024-01-15T03:07:40;19.95;;;8.80;;
37677;SDS011;23517;50.390;8.616;2024-01-15T03:10:07;19.80;;;7.72;;
37677;SDS011;23517;50.390;8.616;2024-01-15T03:12:34;16.88;;;8.85;;
37677;SDS011;23517;50.390;8.616;2024-01-15T03:15:01;17.45;;;7.78;;
37677;SDS011;23517;50.390;8.616;2024-01-15T03:17:28;16.77;;;7.93;;
37677;SDS011;23517;50.390;8.616;2024-01-15T03:19:55;17.48;;;8.27;;
37677;SDS011;23517;50.390;8.616;2024-01-15T03:22:22;17.65;;;7.63;;
37677;SDS011;23517;50.390;8.616;2024-01-15T03:24:49;17.30;;;7.63;;
37677;SDS011;23517;50.390;8.616;2024-01-15T03:27:16;15.38;;;6.93;;
37677;SDS011;23517;50.390;8.616;2024-01-15T03:29:42;18.02;;;8.02;;
37677;SDS011;23517;50.390;8.616;2024-01-15T03:32:09;19.10;;;8.50;;
37677;SDS011;23517;50.390;8.616;2024-01-15T03:34:36;16.98;;;7.22;;
37677;SDS011;23517;50.390;8.616;2024-01-15T03:37:03;18.13;;;7.88;;
37677;SDS011;23517;50.390;8.616;2024-01-15T03:39:29;15.40;;;7.45;;
37677;SDS011;23517;50.390;8.616;2024-01-15T03:41:59;15.85;;;7.70;;
37677;SDS011;23517;50.390;8.616;2024-01-15T03:44:25;14.80;;;7.43;;
37677;SDS011;23517;50.390;8.616;2024-01-15T03:46:52;15.65;;;7.40;;
37677;SDS011;23517;50.390;8.616;2024-01-15T03:49:21;18.33;;;7.72;;
37677;SDS011;23517;50.390;8.616;2024-01-15T03:51:48;16.42;;;7.57;;
37677;SDS011;23517;50.390;8.616;2024-01-15T03:54:15;17.00;;;7.88;;
37677;SDS011;23517;50.390;8.616;2024-01-15T03:56:45;17.42;;;7.38;;
37677;SDS011;23517;50.390;8.616;2024-01-15T03:59:12;15.30;;;7.18;;
37677;SDS011;23517;50.390;8.616;2024-01-15T04:01:39;16.63;;;8.40;;
37677;SDS011;23517;50.390;8.616;2024-01-15T04:04:05;15.57;;;7.10;;
37677;SDS011;23517;50.390;8.616;2024-01-15T04:06:32;17.25;;;7.85;;
37677;SDS011;23517;50.390;8.616;2024-01-15T04:08:59;18.88;;;8.07;;
37677;SDS011;23517;50.390;8.616;2024-01-15T04:11:26;16.65;;;7.90;;
37677;SDS011;23517;50.390;8.616;2024-01-15T04:13:53;15.38;;;8.18;;
37677;SDS011;23517;50.390;8.616;2024-01-15T04:16:20;16.05;;;7.65;;
37677;SDS011;23517;50.390;8.616;2024-01-15T04:18:46;15.98;;;6.65;;
37677;SDS011;23517;50.390;8.616;2024-01-15T04:21:13;16.63;;;7.85;;
37677;SDS011;23517;50.390;8.616;2024-01-15T04:23:40;15.70;;;8.13;;
37677;SDS011;23517;50.390;8.616;2024-01-15T04:26:06;16.48;;;7.88;;
37677;SDS011;23517;50.390;8.616;2024-01-15T04:28:33;18.60;;;8.73;;
37677;SDS011;23517;50.390;8.616;2024-01-15T04:31:00;18.02;;;8.55;;
37677;SDS011;23517;50.390;8.616;2024-01-15T04:33:27;17.08;;;7.75;;
37677;SDS011;23517;50.390;8.616;2024-01-15T04:35:54;18.65;;;7.93;;
37677;SDS011;23517;50.390;8.616;2024-01-15T04:38:21;20.25;;;9.13;;
37677;SDS011;23517;50.390;8.616;2024-01-15T04:40:48;16.13;;;8.25;;
37677;SDS011;23517;50.390;8.616;2024-01-15T04:43:14;20.70;;;8.90;;
37677;SDS011;23517;50.390;8.616;2024-01-15T04:45:41;17.65;;;8.52;;
37677;SDS011;23517;50.390;8.616;2024-01-15T04:48:08;20.38;;;9.00;;
37677;SDS011;23517;50.390;8.616;2024-01-15T04:50:35;18.10;;;8.35;;
37677;SDS011;23517;50.390;8.616;2024-01-15T04:53:01;23.05;;;9.65;;
37677;SDS011;23517;50.390;8.616;2024-01-15T04:55:28;20.20;;;8.93;;
37677;SDS011;23517;50.390;8.616;2024-01-15T04:57:55;18.30;;;8.63;;
37677;SDS011;23517;50.390;8.616;2024-01-15T05:00:21;20.92;;;9.07;;
37677;SDS011;23517;50.390;8.616;2024-01-15T05:02:48;18.70;;;9.00;;
37677;SDS011;23517;50.390;8.616;2024-01-15T05:05:15;18.05;;;8.48;;
37677;SDS011;23517;50.390;8.616;2024-01-15T05:07:42;22.48;;;8.73;;
37677;SDS011;23517;50.390;8.616;2024-01-15T05:10:09;17.27;;;8.50;;
37677;SDS011;23517;50.390;8.616;2024-01-15T05:12:35;16.10;;;8.20;;
37677;SDS011;23517;50.390;8.616;2024-01-15T05:15:02;19.02;;;8.48;;
37677;SDS011;23517;50.390;8.616;2024-01-15T05:17:30;19.65;;;8.88;;
37677;SDS011;23517;50.390;8.616;2024-01-15T05:19:57;17.50;;;8.98;;
37677;SDS011;23517;50.390;8.616;2024-01-15T05:22:24;21.90;;;9.18;;
37677;SDS011;23517;50.390;8.616;2024-01-15T05:24:51;18.85;;;8.23;;
37677;SDS011;23517;50.390;8.616;2024-01-15T05:27:18;21.42;;;8.63;;
37677;SDS011;23517;50.390;8.616;2024-01-15T05:29:45;20.15;;;8.63;;
37677;SDS011;23517;50.390;8.616;2024-01-15T05:32:13;18.00;;;8.68;;
37677;SDS011;23517;50.390;8.616;2024-01-15T05:34:40;18.25;;;8.48;;
37677;SDS011;23517;50.390;8.616;2024-01-15T05:37:07;18.50;;;8.48;;
37677;SDS011;23517;50.390;8.616;2024-01-15T05:39:34;20.23;;;9.18;;
37677;SDS011;23517;50.390;8.616;2024-01-15T05:42:01;20.38;;;8.52;;
37677;SDS011;23517;50.390;8.616;2024-01-15T05:44:27;18.92;;;8.27;;
37677;SDS011;23517;50.390;8.616;2024-01-15T05:46:54;19.92;;;8.50;;
37677;SDS011;23517;50.390;8.616;2024-01-15T05:49:21;22.13;;;8.43;;
37677;SDS011;23517;50.390;8.616;2024-01-15T05:51:48;22.20;;;9.63;;
37677;SDS011;23517;50.390;8.616;2024-01-15T05:54:15;21.63;;;8.57;;
37677;SDS011;23517;50.390;8.616;2024-01-15T05:56:41;19.52;;;8.98;;
37677;SDS011;23517;50.390;8.616;2024-01-15T05:59:08;20.95;;;9.57;;
37677;SDS011;23517;50.390;8.616;2024-01-15T06:01:38;21.75;;;9.00;;
37677;SDS011;23517;50.390;8.616;2024-01-15T06:04:05;18.52;;;8.73;;
37677;SDS011;23517;50.390;8.616;2024-01-15T06:06:33;20.77;;;9.18;;
37677;SDS011;23517;50.390;8.616;2024-01-15T06:08:59;19.92;;;9.35;;
37677;SDS011;23517;50.390;8.616;2024-01-15T06:11:31;19.23;;;9.25;;
37677;SDS011;23517;50.390;8.616;2024-01-15T06:13:58;21.35;;;9.93;;
37677;SDS011;23517;50.390;8.616;2024-01-15T06:16:28;18.88;;;8.68;;
37677;SDS011;23517;50.390;8.616;2024-01-15T06:18:55;20.98;;;9.25;;
37677;SDS011;23517;50.390;8.616;2024-01-15T06:21:21;18.98;;;8.75;;
37677;SDS011;23517;50.390;8.616;2024-01-15T06:23:48;15.43;;;8.30;;
37677;SDS011;23517;50.390;8.616;2024-01-15T06:26:15;19.85;;;9.07;;
37677;SDS011;23517;50.390;8.616;2024-01-15T06:28:41;20.85;;;9.52;;
37677;SDS011;23517;50.390;8.616;2024-01-15T06:31:08;19.30;;;8.93;;
37677;SDS011;23517;50.390;8.616;2024-01-15T06:33:35;23.02;;;10.05;;
37677;SDS011;23517;50.390;8.616;2024-01-15T06:36:02;21.90;;;8.77;;
37677;SDS011;23517;50.390;8.616;2024-01-15T06:38:30;21.33;;;9.60;;
37677;SDS011;23517;50.390;8.616;2024-01-15T06:40:56;19.27;;;9.23;;
37677;SDS011;23517;50.390;8.616;2024-01-15T06:43:23;18.13;;;9.05;;
37677;SDS011;23517;50.390;8.616;2024-01-15T06:45:50;20.17;;;9.25;;
37677;SDS011;23517;50.390;8.616;2024-01-15T06:48:16;21.30;;;9.55;;
37677;SDS011;23517;50.390;8.616;2024-01-15T06:50:43;20.63;;;9.40;;
37677;SDS011;23517;50.390;8.616;2024-01-15T06:53:10;19.58;;;9.45;;
37677;SDS011;23517;50.390;8.616;2024-01-15T06:55:38;20.88;;;8.82;;
37677;SDS011;23517;50.390;8.616;2024-01-15T06:58:05;20.90;;;8.48;;
37677;SDS011;23517;50.390;8.616;2024-01-15T07:00:32;20.13;;;9.30;;
37677;SDS011;23517;50.390;8.616;2024-01-15T07:02:59;17.85;;;7.85;;
37677;SDS011;23517;50.390;8.616;2024-01-15T07:05:26;16.17;;;8.45;;
37677;SDS011;23517;50.390;8.616;2024-01-15T07:07:53;22.88;;;9.38;;
37677;SDS011;23517;50.390;8.616;2024-01-15T07:10:19;17.23;;;7.95;;
37677;SDS011;23517;50.390;8.616;2024-01-15T07:12:46;17.38;;;8.18;;
37677;SDS011;23517;50.390;8.616;2024-01-15T07:15:13;21.80;;;9.48;;
37677;SDS011;23517;50.390;8.616;2024-01-15T07:17:40;21.92;;;9.65;;
37677;SDS011;23517;50.390;8.616;2024-01-15T07:20:09;26.77;;;9.50;;
37677;SDS011;23517;50.390;8.616;2024-01-15T07:22:36;17.10;;;8.68;;
37677;SDS011;23517;50.390;8.616;2024-01-15T07:25:03;22.85;;;9.40;;
37677;SDS011;23517;50.390;8.616;2024-01-15T07:27:31;21.48;;;9.57;;
37677;SDS011;23517;50.390;8.616;2024-01-15T07:29:58;22.75;;;9.35;;
37677;SDS011;23517;50.390;8.616;2024-01-15T07:32:28;18.50;;;9.05;;
37677;SDS011;23517;50.390;8.616;2024-01-15T07:34:55;19.50;;;9.60;;
37677;SDS011;23517;50.390;8.616;2024-01-15T07:37:22;19.15;;;9.20;;
37677;SDS011;23517;50.390;8.616;2024-01-15T07:39:49;18.67;;;8.50;;
37677;SDS011;23517;50.390;8.616;2024-01-15T07:42:16;15.98;;;8.32;;
37677;SDS011;23517;50.390;8.616;2024-01-15T07:44:42;22.02;;;10.10;;
37677;SDS011;23517;50.390;8.616;2024-01-15T07:47:09;18.83;;;9.38;;
37677;SDS011;23517;50.390;8.616;2024-01-15T07:49:36;19.95;;;9.05;;
37677;SDS011;23517;50.390;8.616;2024-01-15T07:52:02;20.88;;;9.75;;
37677;SDS011;23517;50.390;8.616;2024-01-15T07:54:31;18.45;;;8.65;;
37677;SDS011;23517;50.390;8.616;2024-01-15T07:57:01;21.15;;;10.27;;
37677;SDS011;23517;50.390;8.616;2024-01-15T07:59:32;20.00;;;9.25;;
37677;SDS011;23517;50.390;8.616;2024-01-15T08:01:59;21.25;;;8.68;;
37677;SDS011;23517;50.390;8.616;2024-01-15T08:04:26;17.05;;;8.50;;
37677;SDS011;23517;50.390;8.616;2024-01-15T08:06:53;22.35;;;9.95;;
37677;SDS011;23517;50.390;8.616;2024-01-15T08:09:20;19.90;;;8.70;;
37677;SDS011;23517;50.390;8.616;2024-01-15T08:11:47;21.75;;;9.20;;
37677;SDS011;23517;50.390;8.616;2024-01-15T08:14:15;20.13;;;9.18;;
37677;SDS011;23517;50.390;8.616;2024-01-15T08:16:42;21.42;;;9.32;;
37677;SDS011;23517;50.390;8.616;2024-01-15T08:19:09;20.25;;;8.60;;
37677;SDS011;23517;50.390;8.616;2024-01-15T08:21:36;24.45;;;10.52;;
37677;SDS011;23517;50.390;8.616;2024-01-15T08:24:03;19.38;;;8.80;;
37677;SDS011;23517;50.390;8.616;2024-01-15T08:26:30;19.95;;;8.98;;
37677;SDS011;23517;50.390;8.616;2024-01-15T08:28:58;19.48;;;8.98;;
37677;SDS011;23517;50.390;8.616;2024-01-15T08:31:25;23.05;;;10.23;;
37677;SDS011;23517;50.390;8.616;2024-01-15T08:33:52;17.45;;;8.90;;
37677;SDS011;23517;50.390;8.616;2024-01-15T08:36:21;15.90;;;8.35;;
37677;SDS011;23517;50.390;8.616;2024-01-15T08:38:47;19.48;;;9.20;;
37677;SDS011;23517;50.390;8.616;2024-01-15T08:41:14;18.88;;;9.23;;
37677;SDS011;23517;50.390;8.616;2024-01-15T08:43:41;19.20;;;8.82;;
37677;SDS011;23517;50.390;8.616;2024-01-15T08:46:08;19.77;;;9.00;;
37677;SDS011;23517;50.390;8.616;2024-01-15T08:48:34;18.52;;;8.48;;
37677;SDS011;23517;50.390;8.616;2024-01-15T08:51:01;16.77;;;8.25;;
37677;SDS011;23517;50.390;8.616;2024-01-15T08:53:28;19.15;;;9.50;;
37677;SDS011;23517;50.390;8.616;2024-01-15T08:55:55;14.65;;;7.70;;
37677;SDS011;23517;50.390;8.616;2024-01-15T08:58:23;18.50;;;8.98;;
37677;SDS011;23517;50.390;8.616;2024-01-15T09:00:50;18.10;;;8.32;;
37677;SDS011;23517;50.390;8.616;2024-01-15T09:03:17;18.67;;;8.18;;
37677;SDS011;23517;50.390;8.616;2024-01-15T09:05:44;16.83;;;9.48;;
37677;SDS011;23517;50.390;8.616;2024-01-15T09:08:11;17.77;;;8.18;;
37677;SDS011;23517;50.390;8.616;2024-01-15T09:10:38;18.20;;;9.20;;
37677;SDS011;23517;50.390;8.616;2024-01-15T09:13:04;19.63;;;9.10;;
37677;SDS011;23517;50.390;8.616;2024-01-15T09:15:32;15.65;;;7.97;;
37677;SDS011;23517;50.390;8.616;2024-01-15T09:17:59;19.02;;;9.00;;
37677;SDS011;23517;50.390;8.616;2024-01-15T09:20:29;17.52;;;8.90;;
37677;SDS011;23517;50.390;8.616;2024-01-15T09:22:57;16.35;;;8.02;;
37677;SDS011;23517;50.390;8.616;2024-01-15T09:25:23;18.52;;;8.77;;
37677;SDS011;23517;50.390;8.616;2024-01-15T09:27:50;18.00;;;8.15;;
37677;SDS011;23517;50.390;8.616;2024-01-15T09:30:17;16.42;;;9.02;;
37677;SDS011;23517;50.390;8.616;2024-01-15T09:32:44;17.13;;;8.27;;
37677;SDS011;23517;50.390;8.616;2024-01-15T09:35:10;23.40;;;9.80;;
37677;SDS011;23517;50.390;8.616;2024-01-15T09:37:39;17.58;;;9.27;;
37677;SDS011;23517;50.390;8.616;2024-01-15T09:40:13;18.42;;;9.60;;
37677;SDS011;23517;50.390;8.616;2024-01-15T09:42:41;19.80;;;9.10;;
37677;SDS011;23517;50.390;8.616;2024-01-15T09:45:09;17.83;;;9.10;;
37677;SDS011;23517;50.390;8.616;2024-01-15T09:47:37;18.98;;;9.45;;
37677;SDS011;23517;50.390;8.616;2024-01-15T09:50:09;17.23;;;8.70;;
37677;SDS011;23517;50.390;8.616;2024-01-15T09:52:36;16.13;;;8.20;;
37677;SDS011;23517;50.390;8.616;2024-01-15T09:55:04;16.17;;;7.80;;
37677;SDS011;23517;50.390;8.616;2024-01-15T09:57:32;15.85;;;8.93;;
37677;SDS011;23517;50.390;8.616;2024-01-15T09:59:59;14.98;;;8.13;;
37677;SDS011;23517;50.390;8.616;2024-01-15T10:02:32;16.15;;;8.73;;
37677;SDS011;23517;50.390;8.616;2024-01-15T10:04:59;18.15;;;8.23;;
37677;SDS011;23517;50.390;8.616;2024-01-15T10:07:26;17.98;;;8.98;;
37677;SDS011;23517;50.390;8.616;2024-01-15T10:09:55;17.05;;;8.25;;
37677;SDS011;23517;50.390;8.616;2024-01-15T10:12:22;15.23;;;8.32;;
37677;SDS011;23517;50.390;8.616;2024-01-15T10:14:50;18.40;;;8.55;;
37677;SDS011;23517;50.390;8.616;2024-01-15T10:17:17;13.10;;;7.40;;
37677;SDS011;23517;50.390;8.616;2024-01-15T10:19:47;15.63;;;7.45;;
37677;SDS011;23517;50.390;8.616;2024-01-15T10:22:16;14.10;;;7.63;;
37677;SDS011;23517;50.390;8.616;2024-01-15T10:24:44;15.07;;;7.43;;
37677;SDS011;23517;50.390;8.616;2024-01-15T10:27:11;12.18;;;6.38;;
37677;SDS011;23517;50.390;8.616;2024-01-15T10:29:39;14.10;;;7.10;;
37677;SDS011;23517;50.390;8.616;2024-01-15T10:32:08;12.90;;;6.60;;
37677;SDS011;23517;50.390;8.616;2024-01-15T10:34:39;13.30;;;7.10;;
37677;SDS011;23517;50.390;8.616;2024-01-15T10:37:08;13.13;;;6.28;;
37677;SDS011;23517;50.390;8.616;2024-01-15T10:39:36;13.95;;;6.97;;
37677;SDS011;23517;50.390;8.616;2024-01-15T10:42:04;12.05;;;6.53;;
37677;SDS011;23517;50.390;8.616;2024-01-15T10:44:32;12.18;;;6.85;;
37677;SDS011;23517;50.390;8.616;2024-01-15T10:47:01;9.50;;;5.47;;
37677;SDS011;23517;50.390;8.616;2024-01-15T10:49:29;11.93;;;6.07;;
37677;SDS011;23517;50.390;8.616;2024-01-15T10:52:00;14.60;;;6.70;;
37677;SDS011;23517;50.390;8.616;2024-01-15T10:54:29;12.35;;;6.13;;
37677;SDS011;23517;50.390;8.616;2024-01-15T10:56:56;11.98;;;6.57;;
37677;SDS011;23517;50.390;8.616;2024-01-15T10:59:24;9.95;;;5.07;;
37677;SDS011;23517;50.390;8.616;2024-01-15T11:01:51;9.93;;;5.43;;
37677;SDS011;23517;50.390;8.616;2024-01-15T11:04:23;10.77;;;5.28;;
37677;SDS011;23517;50.390;8.616;2024-01-15T11:06:53;12.57;;;5.82;;
37677;SDS011;23517;50.390;8.616;2024-01-15T11:09:25;11.70;;;5.47;;
37677;SDS011;23517;50.390;8.616;2024-01-15T11:11:52;13.40;;;5.55;;
37677;SDS011;23517;50.390;8.616;2024-01-15T11:14:39;11.02;;;5.35;;
37677;SDS011;23517;50.390;8.616;2024-01-15T11:17:10;9.57;;;4.82;;
37677;SDS011;23517;50.390;8.616;2024-01-15T11:19:46;13.07;;;5.55;;
37677;SDS011;23517;50.390;8.616;2024-01-15T11:24:56;9.25;;;5.03;;
37677;SDS011;23517;50.390;8.616;2024-01-15T11:30:24;11.05;;;5.47;;
37677;SDS011;23517;50.390;8.616;2024-01-15T11:32:52;8.95;;;5.18;;
37677;SDS011;23517;50.390;8.616;2024-01-15T11:35:19;8.98;;;4.85;;
37677;SDS011;23517;50.390;8.616;2024-01-15T11:40:21;9.50;;;5.88;;
37677;SDS011;23517;50.390;8.616;2024-01-15T11:42:59;7.55;;;4.78;;
37677;SDS011;23517;50.390;8.616;2024-01-15T11:45:25;9.13;;;5.45;;
37677;SDS011;23517;50.390;8.616;2024-01-15T11:50:44;9.02;;;5.13;;
37677;SDS011;23517;50.390;8.616;2024-01-15T11:53:18;10.90;;;5.60;;
37677;SDS011;23517;50.390;8.616;2024-01-15T11:56:16;9.80;;;5.30;;
37677;SDS011;23517;50.390;8.616;2024-01-15T11:58:44;8.63;;;5.15;;
37677;SDS011;23517;50.390;8.616;2024-01-15T12:01:11;9.80;;;5.60;;
37677;SDS011;23517;50.390;8.616;2024-01-15T12:03:38;9.43;;;5.18;;
37677;SDS011;23517;50.390;8.616;2024-01-15T12:06:06;7.95;;;5.43;;
37677;SDS011;23517;50.390;8.616;2024-01-15T12:08:33;8.68;;;5.55;;
37677;SDS011;23517;50.390;8.616;2024-01-15T12:11:00;8.18;;;4.75;;
37677;SDS011;23517;50.390;8.616;2024-01-15T12:13:37;9.40;;;4.63;;
37677;SDS011;23517;50.390;8.616;2024-01-15T12:16:04;8.55;;;5.07;;
37677;SDS011;23517;50.390;8.616;2024-01-15T12:18:31;6.63;;;4.40;;
37677;SDS011;23517;50.390;8.616;2024-01-15T12:21:01;8.93;;;5.50;;
37677;SDS011;23517;50.390;8.616;2024-01-15T12:23:27;9.25;;;4.88;;
37677;SDS011;23517;50.390;8.616;2024-01-15T12:25:54;9.85;;;5.15;;
37677;SDS011;23517;50.390;8.616;2024-01-15T12:28:21;9.80;;;5.50;;
37677;SDS011;23517;50.390;8.616;2024-01-15T12:30:49;7.75;;;4.82;;
37677;SDS011;23517;50.390;8.616;2024-01-15T12:33:17;6.65;;;4.40;;
37677;SDS011;23517;50.390;8.616;2024-01-15T12:35:46;9.77;;;4.97;;
37677;SDS011;23517;50.390;8.616;2024-01-15T12:38:14;6.95;;;4.60;;
37677;SDS011;23517;50.390;8.616;2024-01-15T12:40:43;6.78;;;4.78;;
37677;SDS011;23517;50.390;8.616;2024-01-15T12:43:12;8.50;;;4.88;;
37677;SDS011;23517;50.390;8.616;2024-01-15T12:45:39;7.13;;;4.75;;
37677;SDS011;23517;50.390;8.616;2024-01-15T12:48:06;6.35;;;4.25;;
37677;SDS011;23517;50.390;8.616;2024-01-15T12:50:33;6.65;;;4.20;;
37677;SDS011;23517;50.390;8.616;2024-01-15T12:53:01;7.88;;;4.63;;
37677;SDS011;23517;50.390;8.616;2024-01-15T12:55:28;7.57;;;4.40;;
37677;SDS011;23517;50.390;8.616;2024-01-15T12:57:55;5.93;;;4.25;;
37677;SDS011;23517;50.390;8.616;2024-01-15T13:00:22;5.65;;;3.22;;
37677;SDS011;23517;50.390;8.616;2024-01-15T13:02:49;6.72;;;3.88;;
37677;SDS011;23517;50.390;8.616;2024-01-15T13:05:16;8.02;;;3.70;;
37677;SDS011;23517;50.390;8.616;2024-01-15T13:07:43;6.20;;;3.97;;
37677;SDS011;23517;50.390;8.616;2024-01-15T13:10:10;6.80;;;4.25;;
37677;SDS011;23517;50.390;8.616;2024-01-15T13:12:38;6.18;;;3.63;;
37677;SDS011;23517;50.390;8.616;2024-01-15T13:15:06;7.55;;;3.70;;
37677;SDS011;23517;50.390;8.616;2024-01-15T13:17:38;5.65;;;3.53;;
37677;SDS011;23517;50.390;8.616;2024-01-15T13:20:08;4.78;;;2.88;;
37677;SDS011;23517;50.390;8.616;2024-01-15T13:22:38;5.50;;;3.58;;
37677;SDS011;23517;50.390;8.616;2024-01-15T13:25:06;4.85;;;2.97;;
37677;SDS011;23517;50.390;8.616;2024-01-15T13:27:34;6.53;;;3.42;;
37677;SDS011;23517;50.390;8.616;2024-01-15T13:30:02;4.80;;;3.15;;
37677;SDS011;23517;50.390;8.616;2024-01-15T13:32:30;6.93;;;3.42;;
37677;SDS011;23517;50.390;8.616;2024-01-15T13:34:57;6.22;;;3.75;;
37677;SDS011;23517;50.390;8.616;2024-01-15T13:37:25;5.63;;;2.97;;
37677;SDS011;23517;50.390;8.616;2024-01-15T13:39:53;5.25;;;3.28;;
37677;SDS011;23517;50.390;8.616;2024-01-15T13:42:20;5.10;;;2.90;;
37677;SDS011;23517;50.390;8.616;2024-01-15T13:44:50;7.03;;;3.15;;
37677;SDS011;23517;50.390;8.616;2024-01-15T13:47:17;6.10;;;3.33;;
37677;SDS011;23517;50.390;8.616;2024-01-15T13:49:44;9.15;;;3.50;;
37677;SDS011;23517;50.390;8.616;2024-01-15T13:52:11;5.70;;;3.17;;
37677;SDS011;23517;50.390;8.616;2024-01-15T13:54:38;6.00;;;3.30;;
37677;SDS011;23517;50.390;8.616;2024-01-15T13:57:15;6.88;;;3.80;;
37677;SDS011;23517;50.390;8.616;2024-01-15T13:59:43;4.75;;;3.22;;
37677;SDS011;23517;50.390;8.616;2024-01-15T14:02:10;6.93;;;3.28;;
37677;SDS011;23517;50.390;8.616;2024-01-15T14:04:37;6.55;;;3.55;;
37677;SDS011;23517;50.390;8.616;2024-01-15T14:07:05;6.53;;;3.92;;
37677;SDS011;23517;50.390;8.616;2024-01-15T14:09:32;6.32;;;3.42;;
37677;SDS011;23517;50.390;8.616;2024-01-15T14:11:59;4.60;;;2.90;;
37677;SDS011;23517;50.390;8.616;2024-01-15T14:14:26;7.10;;;3.05;;
37677;SDS011;23517;50.390;8.616;2024-01-15T14:16:52;5.38;;;2.83;;
37677;SDS011;23517;50.390;8.616;2024-01-15T14:19:19;6.57;;;3.58;;
37677;SDS011;23517;50.390;8.616;2024-01-15T14:21:47;6.53;;;3.53;;
37677;SDS011;23517;50.390;8.616;2024-01-15T14:24:14;5.75;;;2.72;;
37677;SDS011;23517;50.390;8.616;2024-01-15T14:26:43;6.75;;;3.17;;
37677;SDS011;23517;50.390;8.616;2024-01-15T14:29:10;4.85;;;2.65;;
37677;SDS011;23517;50.390;8.616;2024-01-15T14:31:37;5.85;;;2.90;;
37677;SDS011;23517;50.390;8.616;2024-01-15T14:34:04;8.15;;;3.30;;
37677;SDS011;23517;50.390;8.616;2024-01-15T14:36:31;4.90;;;3.13;;
37677;SDS011;23517;50.390;8.616;2024-01-15T14:38:58;4.97;;;2.72;;
37677;SDS011;23517;50.390;8.616;2024-01-15T14:41:24;5.88;;;2.85;;
37677;SDS011;23517;50.390;8.616;2024-01-15T14:43:51;5.90;;;2.90;;
37677;SDS011;23517;50.390;8.616;2024-01-15T14:46:18;4.75;;;2.50;;
37677;SDS011;23517;50.390;8.616;2024-01-15T14:48:45;8.45;;;3.15;;
37677;SDS011;23517;50.390;8.616;2024-01-15T14:51:12;11.15;;;2.97;;
37677;SDS011;23517;50.390;8.616;2024-01-15T14:53:39;7.38;;;3.10;;